Time;durP1;ratioP1;P1;durP2;ratioP2;P2;SDS_P1;SDS_P2;PMS_P1;PMS_P2;Temp;Humidity;BMP_temperature;BMP_pressure;BME280_temperature;BME280_humidity;BME280_pressure;Samples;Min_cycle;Max_cycle;Signal;HPM_P1;HPM_P2
2023/07/15 00:20:35;;;;;;;;;;;;;;;16.68;86.08;99002.28;6278488;22;20371;-95
2023/07/15 00:23:01;;;;;;;;;;;;;;;16.69;86.03;99000.34;6227716;22;19926;-92
2023/07/15 00:25:27;;;;;;;;;;;;;;;16.67;86.00;99008.97;6200409;22;20002;-92
2023/07/15 00:27:53;;;;;;;;;;;;;;;16.68;86.04;99004.25;6225477;22;19919;-93
2023/07/15 00:30:21;;;;;;;;;;;;;;;16.67;86.34;99013.69;6201781;22;19945;-93
2023/07/15 00:32:48;;;;;;;;;;;;;;;16.67;86.34;99008.97;6201052;22;19964;-94
2023/07/15 00:35:17;;;;;;;;;;;;;;;16.64;86.44;99004.16;6201172;22;19919;-93
2023/07/15 00:37:43;;;;;;;;;;;;;;;16.66;86.88;99014.84;6200648;22;19943;-93
2023/07/15 00:40:10;;;;;;;;;;;;;;;16.68;86.81;99001.47;6200216;22;19919;-94
2023/07/15 00:42:41;;;;;;;;;;;;;;;16.70;87.00;99006.66;6227232;22;20422;-95
2023/07/15 00:45:08;;;;;;;;;;;;;;;16.72;87.02;99005.13;6177539;22;19946;-94
2023/07/15 00:47:39;;;;;;;;;;;;;;;16.75;86.96;99000.84;6199448;22;19919;-92
2023/07/15 00:50:06;;;;;;;;;;;;;;;16.76;86.82;98995.00;6202076;22;19919;-94
2023/07/15 00:52:32;;;;;;;;;;;;;;;16.81;86.74;98999.41;6228556;22;19926;-94
2023/07/15 00:54:58;;;;;;;;;;;;;;;16.80;86.56;99001.38;6202594;22;19919;-94
2023/07/15 00:57:25;;;;;;;;;;;;;;;16.81;86.37;98997.44;6254444;22;20416;-95
2023/07/15 00:59:58;;;;;;;;;;;;;;;16.80;86.25;98995.06;6253990;22;19923;-95
2023/07/15 01:02:26;;;;;;;;;;;;;;;16.80;86.56;98993.09;6176462;22;21836;-94
2023/07/15 01:04:52;;;;;;;;;;;;;;;16.82;86.51;98995.47;6224379;22;20005;-91
2023/07/15 01:07:45;;;;;;;;;;;;;;;16.79;86.43;98985.19;6201117;22;19919;-91
2023/07/15 01:10:11;;;;;;;;;;;;;;;16.72;86.60;98987.75;6224117;22;19985;-91
2023/07/15 01:12:37;;;;;;;;;;;;;;;16.74;87.04;98986.22;6249329;22;20353;-90
2023/07/15 01:15:03;;;;;;;;;;;;;;;16.69;86.90;98989.28;6223719;22;19919;-90
2023/07/15 01:17:29;;;;;;;;;;;;;;;16.67;86.71;98983.31;6223897;22;19942;-91
2023/07/15 01:19:54;;;;;;;;;;;;;;;16.68;86.96;98977.44;6252809;22;20353;-89
2023/07/15 01:22:21;;;;;;;;;;;;;;;16.72;87.02;98973.94;6168487;23;19926;-88
2023/07/15 01:24:47;;;;;;;;;;;;;;;16.71;86.60;98972.34;6193775;23;19916;-90
2023/07/15 01:27:16;;;;;;;;;;;;;;;16.69;86.38;98972.72;6169247;23;19930;-88
2023/07/15 01:29:43;;;;;;;;;;;;;;;16.65;86.08;98969.06;6193616;23;19916;-91
2023/07/15 01:32:08;;;;;;;;;;;;;;;16.71;86.44;98970.41;6168567;23;19963;-92
2023/07/15 01:34:36;;;;;;;;;;;;;;;16.70;86.10;98973.53;6245345;23;19920;-90
2023/07/15 01:37:02;;;;;;;;;;;;;;;16.67;85.40;98970.31;6218501;23;19942;-90
2023/07/15 01:39:27;;;;;;;;;;;;;;;16.65;85.54;98969.06;6193536;23;20357;-92
2023/07/15 01:41:55;;;;;;;;;;;;;;;16.67;86.45;98972.28;6194471;23;20003;-91
2023/07/15 01:44:22;;;;;;;;;;;;;;;16.65;86.48;98972.66;6194192;23;19965;-91
2023/07/15 01:46:49;;;;;;;;;;;;;;;16.58;86.15;98969.72;6193089;23;19920;-90
2023/07/15 01:49:14;;;;;;;;;;;;;;;16.58;85.92;98963.41;6218905;23;19926;-90
2023/07/15 01:51:40;;;;;;;;;;;;;;;16.56;85.59;98966.53;6218585;23;19959;-92
2023/07/15 01:54:06;;;;;;;;;;;;;;;16.58;85.56;98972.47;6218943;23;19923;-91
2023/07/15 01:56:32;;;;;;;;;;;;;;;16.60;85.97;98972.13;6195120;23;19919;-91
2023/07/15 01:58:57;;;;;;;;;;;;;;;16.61;85.16;98968.22;6195468;23;20353;-91
2023/07/15 02:01:23;;;;;;;;;;;;;;;16.64;85.55;98961.97;6220805;23;19927;-90
2023/07/15 02:03:50;;;;;;;;;;;;;;;16.66;84.53;98959.66;6195562;23;19955;-90
2023/07/15 02:06:16;;;;;;;;;;;;;;;16.65;84.90;98960.78;6220375;23;19947;-89
2023/07/15 02:08:44;;;;;;;;;;;;;;;16.71;84.79;98964.88;6220946;23;19925;-91
2023/07/15 02:11:10;;;;;;;;;;;;;;;16.66;84.14;98965.97;6195185;23;19959;-89
2023/07/15 02:13:36;;;;;;;;;;;;;;;16.68;84.26;98971.13;6170366;23;19946;-91
2023/07/15 02:16:02;;;;;;;;;;;;;;;16.73;84.43;98962.56;6220073;23;19998;-92
2023/07/15 02:18:28;;;;;;;;;;;;;;;16.73;83.83;98964.53;6220150;22;19920;-90
2023/07/15 02:20:53;;;;;;;;;;;;;;;16.75;83.26;98965.78;6220498;23;20029;-91
2023/07/15 02:23:19;;;;;;;;;;;;;;;16.73;83.37;98967.28;6194856;23;19919;-90
2023/07/15 02:25:45;;;;;;;;;;;;;;;16.77;82.83;98976.47;6195485;23;19920;-91
2023/07/15 02:28:11;;;;;;;;;;;;;;;16.82;82.74;98973.41;6170489;23;19920;-90
2023/07/15 02:30:37;;;;;;;;;;;;;;;16.91;83.44;98976.75;6195907;23;20367;-93
2023/07/15 02:33:06;;;;;;;;;;;;;;;16.86;82.63;98974.28;6195559;23;19919;-91
2023/07/15 02:35:35;;;;;;;;;;;;;;;16.85;82.17;98979.03;6220643;23;19920;-92
2023/07/15 02:38:01;;;;;;;;;;;;;;;16.81;81.69;98969.06;6171340;23;20345;-93
2023/07/15 02:40:27;;;;;;;;;;;;;;;16.78;82.92;98978.06;6171653;23;19920;-93
2023/07/15 02:42:53;;;;;;;;;;;;;;;16.82;82.59;98978.91;6220895;23;19919;-92
2023/07/15 02:45:18;;;;;;;;;;;;;;;16.81;82.48;98983.66;6170681;23;19919;-92
2023/07/15 02:47:44;;;;;;;;;;;;;;;16.83;81.69;98981.34;6195141;23;20010;-92
2023/07/15 02:50:11;;;;;;;;;;;;;;;16.83;82.77;98983.31;6220754;23;19927;-91
2023/07/15 02:52:37;;;;;;;;;;;;;;;16.68;81.01;98974.66;6195641;23;19923;-90
2023/07/15 02:55:04;;;;;;;;;;;;;;;16.73;81.66;98983.84;6248089;23;19947;-93
2023/07/15 02:57:31;;;;;;;;;;;;;;;16.65;82.70;98983.69;6194922;23;19923;-94
2023/07/15 02:59:57;;;;;;;;;;;;;;;16.68;82.33;98982.16;6221173;23;20007;-90
2023/07/15 03:02:23;;;;;;;;;;;;;;;16.67;82.73;98986.09;6221562;23;19955;-92
2023/07/15 03:04:49;;;;;;;;;;;;;;;16.65;81.74;98985.63;6199417;23;20001;-91
2023/07/15 03:07:15;;;;;;;;;;;;;;;16.74;82.95;98983.47;6196048;23;19919;-91
2023/07/15 03:09:42;;;;;;;;;;;;;;;16.71;82.58;98988.91;6220783;23;20459;-92
2023/07/15 03:12:10;;;;;;;;;;;;;;;16.70;82.12;98990.88;6220277;23;19973;-90
2023/07/15 03:14:36;;;;;;;;;;;;;;;16.66;81.90;98985.28;6195422;23;19985;-89
2023/07/15 03:17:03;;;;;;;;;;;;;;;16.72;82.61;98982.22;6195274;23;20301;-91
2023/07/15 03:19:31;;;;;;;;;;;;;;;16.76;83.64;98983.16;6206955;23;19926;-91
2023/07/15 03:21:57;;;;;;;;;;;;;;;16.73;82.17;98989.38;6195153;23;19923;-91
2023/07/15 03:24:25;;;;;;;;;;;;;;;16.78;81.32;98989.09;6220832;23;19927;-90
2023/07/15 03:26:52;;;;;;;;;;;;;;;16.76;81.86;98994.19;6220688;23;20017;-90
2023/07/15 03:29:17;;;;;;;;;;;;;;;16.78;81.97;98987.13;6244350;23;19919;-92
2023/07/15 03:31:43;;;;;;;;;;;;;;;16.73;82.20;98987.41;6220272;23;19920;-90
2023/07/15 03:34:09;;;;;;;;;;;;;;;16.80;81.88;98987.56;6248559;23;19964;-92
2023/07/15 03:36:35;;;;;;;;;;;;;;;16.86;82.36;98990.84;6197539;23;19928;-91
2023/07/15 03:39:00;;;;;;;;;;;;;;;16.84;83.09;98988.44;6247324;23;19927;-93
2023/07/15 03:41:26;;;;;;;;;;;;;;;16.83;81.86;98992.38;6196961;23;19920;-92
2023/07/15 03:43:52;;;;;;;;;;;;;;;16.82;81.67;98992.72;6245289;22;19944;-92
2023/07/15 03:46:18;;;;;;;;;;;;;;;16.88;82.33;98989.31;6246660;23;19967;-92
2023/07/15 03:48:43;;;;;;;;;;;;;;;16.96;83.84;98995.00;6222076;23;19895;-91
2023/07/15 03:51:09;;;;;;;;;;;;;;;16.90;81.16;98997.25;6246789;23;19950;-93
2023/07/15 03:53:35;;;;;;;;;;;;;;;16.90;81.62;98991.72;6215736;23;19915;-93
2023/07/15 03:56:01;;;;;;;;;;;;;;;16.96;81.55;98997.75;6204754;23;19920;-92
2023/07/15 03:58:27;;;;;;;;;;;;;;;16.96;82.40;98998.56;6249797;23;19955;-92
2023/07/15 04:00:53;;;;;;;;;;;;;;;16.96;82.79;99000.53;6224251;23;19969;-93
2023/07/15 04:03:18;;;;;;;;;;;;;;;16.98;81.99;99001.75;6198975;23;19920;-93
2023/07/15 04:05:44;;;;;;;;;;;;;;;17.02;82.24;98999.03;6207715;23;19946;-93
2023/07/15 04:08:11;;;;;;;;;;;;;;;16.90;81.26;98998.03;6225717;23;19972;-91
2023/07/15 04:10:36;;;;;;;;;;;;;;;16.87;81.90;98997.97;6198609;23;20011;-92
2023/07/15 04:13:02;;;;;;;;;;;;;;;16.91;83.03;99005.16;6248281;23;19915;-93
2023/07/15 04:15:29;;;;;;;;;;;;;;;16.90;82.10;98997.25;6223130;23;19927;-91
2023/07/15 04:17:55;;;;;;;;;;;;;;;16.94;82.23;98998.13;6222614;23;19973;-94
2023/07/15 04:20:21;;;;;;;;;;;;;;;16.88;81.13;99005.09;6224302;23;19920;-93
2023/07/15 04:22:47;;;;;;;;;;;;;;;16.88;81.69;99005.88;6222622;23;19951;-92
2023/07/15 04:25:13;;;;;;;;;;;;;;;16.87;81.82;99007.03;6250778;23;19930;-94
2023/07/15 04:27:41;;;;;;;;;;;;;;;16.84;81.48;99004.22;6224921;23;19954;-95
2023/07/15 04:30:08;;;;;;;;;;;;;;;16.77;81.61;98998.53;6200630;23;19927;-92
2023/07/15 04:32:34;;;;;;;;;;;;;;;16.72;82.23;99001.56;6222229;23;20006;-91
2023/07/15 04:35:01;;;;;;;;;;;;;;;16.75;82.22;99020.19;6248410;23;19927;-91
2023/07/15 04:37:29;;;;;;;;;;;;;;;16.75;82.47;99012.69;6223130;23;19920;-89
2023/07/15 04:39:55;;;;;;;;;;;;;;;16.80;83.63;99014.38;6219075;23;20002;-89
2023/07/15 04:42:21;;;;;;;;;;;;;;;16.79;82.23;99008.06;6252316;23;20006;-90
2023/07/15 04:44:47;;;;;;;;;;;;;;;16.85;83.45;99014.91;6197499;23;19923;-90
2023/07/15 04:47:12;;;;;;;;;;;;;;;16.73;82.82;99016.97;6248883;23;19924;-92
2023/07/15 04:49:38;;;;;;;;;;;;;;;16.72;83.50;99024.47;6198693;23;19920;-91
2023/07/15 04:52:04;;;;;;;;;;;;;;;16.70;83.29;99023.22;6249776;23;20101;-91
2023/07/15 04:54:30;;;;;;;;;;;;;;;16.74;83.26;99022.13;6196177;23;19919;-90
2023/07/15 04:56:56;;;;;;;;;;;;;;;16.75;83.31;99028.47;6222834;23;19926;-92
2023/07/15 04:59:22;;;;;;;;;;;;;;;16.74;83.54;99035.13;6248539;23;19920;-92
2023/07/15 05:01:48;;;;;;;;;;;;;;;16.80;84.22;99030.94;6250125;23;19920;-92
2023/07/15 05:04:14;;;;;;;;;;;;;;;16.84;84.23;99029.84;6197074;23;20261;-92
2023/07/15 05:06:40;;;;;;;;;;;;;;;16.86;83.11;99043.31;6249021;23;20344;-93
2023/07/15 05:09:08;;;;;;;;;;;;;;;16.82;83.05;99034.13;6198771;23;19931;-90
2023/07/15 05:11:33;;;;;;;;;;;;;;;16.79;83.52;99046.72;6224908;23;20420;-94
2023/07/15 05:14:00;;;;;;;;;;;;;;;16.68;83.19;99040.91;6204175;23;19926;-92
2023/07/15 05:16:26;;;;;;;;;;;;;;;16.62;83.70;99036.84;6222858;23;19924;-93
2023/07/15 05:18:52;;;;;;;;;;;;;;;16.61;83.61;99034.44;6222799;23;19926;-94
2023/07/15 05:21:17;;;;;;;;;;;;;;;16.50;84.34;99034.22;6232581;23;19919;-91
2023/07/15 05:23:44;;;;;;;;;;;;;;;16.59;84.95;99040.34;6251749;23;19919;-94
2023/07/15 05:26:10;;;;;;;;;;;;;;;16.56;84.39;99041.06;6200793;23;20006;-92
2023/07/15 05:28:36;;;;;;;;;;;;;;;16.55;84.68;99036.66;6224775;23;19920;-93
2023/07/15 05:31:06;;;;;;;;;;;;;;;16.48;85.01;99042.03;6200091;23;20001;-94
2023/07/15 05:33:31;;;;;;;;;;;;;;;16.54;85.33;99045.31;6198362;23;19919;-93
2023/07/15 05:35:58;;;;;;;;;;;;;;;16.67;85.57;99050.34;6246749;23;20326;-90
2023/07/15 05:38:49;;;;;;;;;;;;;;;16.67;84.89;99039.31;6223988;23;19920;-96
2023/07/15 05:41:14;;;;;;;;;;;;;;;16.62;84.71;99056.19;6174395;23;19919;-91
2023/07/15 05:43:40;;;;;;;;;;;;;;;16.62;84.97;99050.66;6199446;23;19920;-93
2023/07/15 05:46:06;;;;;;;;;;;;;;;16.64;84.43;99045.56;6199512;23;19985;-91
2023/07/15 05:48:33;;;;;;;;;;;;;;;16.68;85.08;99060.22;6220212;22;20327;-91
2023/07/15 05:51:00;;;;;;;;;;;;;;;16.61;85.09;99054.56;6177127;23;19930;-93
2023/07/15 05:53:27;;;;;;;;;;;;;;;16.54;84.62;99056.34;6219869;23;19997;-91
2023/07/15 05:55:53;;;;;;;;;;;;;;;16.60;84.72;99066.75;6168482;23;19920;-93
2023/07/15 05:58:18;;;;;;;;;;;;;;;16.68;84.79;99062.19;6197598;23;19944;-91
2023/07/15 06:00:44;;;;;;;;;;;;;;;16.63;83.64;99055.00;6196062;23;19947;-93
2023/07/15 06:03:10;;;;;;;;;;;;;;;16.70;83.97;99061.84;6197519;23;19924;-90
2023/07/15 06:05:36;;;;;;;;;;;;;;;16.75;83.85;99062.38;6217638;23;19955;-93
2023/07/15 06:08:02;;;;;;;;;;;;;;;16.79;83.87;99056.97;6168661;23;19974;-93
2023/07/15 06:10:27;;;;;;;;;;;;;;;16.77;82.64;99067.56;6215523;23;19923;-91
2023/07/15 06:12:53;;;;;;;;;;;;;;;16.74;83.04;99065.47;6215083;23;19924;-93
2023/07/15 06:15:19;;;;;;;;;;;;;;;16.86;83.04;99071.72;6216210;23;19919;-91
2023/07/15 06:17:45;;;;;;;;;;;;;;;16.82;82.99;99070.84;6191414;23;20243;-94
2023/07/15 06:20:11;;;;;;;;;;;;;;;16.89;83.64;99062.72;6190069;23;19927;-89
2023/07/15 06:22:37;;;;;;;;;;;;;;;17.01;83.16;99070.06;6212559;23;19920;-90
2023/07/15 06:25:03;;;;;;;;;;;;;;;17.03;82.18;99072.47;6194703;23;19930;-94
2023/07/15 06:27:29;;;;;;;;;;;;;;;16.91;82.69;99076.16;6220815;23;19920;-90
2023/07/15 06:29:55;;;;;;;;;;;;;;;16.79;82.96;99079.06;6226364;23;19920;-91
2023/07/15 06:32:24;;;;;;;;;;;;;;;16.83;83.76;99077.97;6176521;23;19920;-95
2023/07/15 06:34:50;;;;;;;;;;;;;;;16.91;82.99;99084.44;6226938;23;19924;-95
2023/07/15 06:37:16;;;;;;;;;;;;;;;16.88;83.47;99082.38;6228827;23;19920;-93
2023/07/15 06:39:42;;;;;;;;;;;;;;;16.99;82.62;99086.19;6199168;23;19919;-91
2023/07/15 06:42:08;;;;;;;;;;;;;;;17.07;82.20;99089.91;6197987;23;19971;-94
2023/07/15 06:44:35;;;;;;;;;;;;;;;17.05;82.24;99097.75;6197996;23;19920;-95
2023/07/15 06:47:01;;;;;;;;;;;;;;;17.04;81.43;99090.63;6196190;23;19920;-91
2023/07/15 06:49:27;;;;;;;;;;;;;;;17.02;82.30;99093.75;6194991;23;19920;-92
2023/07/15 06:51:52;;;;;;;;;;;;;;;17.12;81.44;99098.72;6253726;23;19919;-90
2023/07/15 06:54:18;;;;;;;;;;;;;;;17.14;80.78;99107.41;6197657;23;19919;-89
2023/07/15 06:56:45;;;;;;;;;;;;;;;17.12;81.56;99108.97;6196081;23;20002;-90
2023/07/15 06:59:11;;;;;;;;;;;;;;;17.00;82.92;99106.31;6197299;23;19997;-90
2023/07/15 07:01:36;;;;;;;;;;;;;;;16.95;82.94;99101.88;6245291;23;19923;-90
2023/07/15 07:04:02;;;;;;;;;;;;;;;17.05;83.83;99095.81;6195194;23;19919;-90
2023/07/15 07:06:32;;;;;;;;;;;;;;;17.21;83.70;99112.28;6195705;23;19926;-93
2023/07/15 07:09:04;;;;;;;;;;;;;;;17.26;82.73;99102.94;6195854;23;19919;-92
2023/07/15 07:11:39;;;;;;;;;;;;;;;17.35;82.74;99114.56;6200658;23;19926;-90
2023/07/15 07:14:11;;;;;;;;;;;;;;;17.48;83.45;99104.97;6195646;23;19919;-91
2023/07/15 07:17:01;;;;;;;;;;;;;;;17.38;81.92;99113.81;6195448;23;20253;-92
2023/07/15 07:20:08;;;;;;;;;;;;;;;17.49;83.31;99117.63;6196611;23;19920;-91
2023/07/15 07:23:11;;;;;;;;;;;;;;;17.60;82.74;99117.84;6197772;23;20360;-91
2023/07/15 07:25:40;;;;;;;;;;;;;;;17.58;82.12;99122.91;6222408;23;19920;-93
2023/07/15 07:28:06;;;;;;;;;;;;;;;17.65;81.73;99128.63;6196991;23;20414;-92
2023/07/15 07:30:32;;;;;;;;;;;;;;;17.54;81.31;99128.38;6198333;23;19920;-89
2023/07/15 07:33:10;;;;;;;;;;;;;;;17.43;81.75;99130.13;6222199;23;20356;-91
2023/07/15 07:35:37;;;;;;;;;;;;;;;17.53;82.84;99126.78;6223512;23;19919;-89
2023/07/15 07:38:03;;;;;;;;;;;;;;;17.49;81.05;99128.69;6246671;22;19924;-92
2023/07/15 07:41:07;;;;;;;;;;;;;;;17.53;81.34;99129.56;6249478;23;20078;-91
2023/07/15 07:43:36;;;;;;;;;;;;;;;17.57;81.11;99138.72;6201920;23;19919;-89
2023/07/15 07:46:06;;;;;;;;;;;;;;;17.58;81.15;99131.22;6226052;23;19973;-91
2023/07/15 07:48:57;;;;;;;;;;;;;;;17.68;82.21;99138.13;6248450;23;20234;-87
2023/07/15 07:51:48;;;;;;;;;;;;;;;17.69;80.31;99142.50;6248608;23;20256;-90
2023/07/15 07:54:40;;;;;;;;;;;;;;;17.69;80.68;99137.75;6201250;23;19920;-91
2023/07/15 08:00:02;;;;;;;;;;;;;;;17.55;80.78;99149.34;6227163;23;19920;-90
2023/07/15 08:02:35;;;;;;;;;;;;;;;17.55;81.14;99140.25;6240063;22;19922;-88
2023/07/15 08:07:59;;;;;;;;;;;;;;;17.74;80.60;99144.97;6194158;23;19923;-88
2023/07/15 08:10:25;;;;;;;;;;;;;;;17.71;80.80;99149.25;6224164;22;19967;-91
2023/07/15 08:13:20;;;;;;;;;;;;;;;17.80;81.97;99141.56;6226825;23;19920;-92
2023/07/15 08:16:24;;;;;;;;;;;;;;;17.88;81.39;99142.53;6222706;23;19919;-90
2023/07/15 08:18:50;;;;;;;;;;;;;;;17.81;79.74;99147.88;6223449;22;19951;-92
2023/07/15 08:21:26;;;;;;;;;;;;;;;17.80;80.09;99149.06;6248846;23;20266;-94
2023/07/15 08:24:28;;;;;;;;;;;;;;;17.89;79.65;99148.84;6223790;23;19919;-92
2023/07/15 08:26:58;;;;;;;;;;;;;;;18.10;80.63;99146.47;6241022;23;19988;-91
2023/07/15 08:30:01;;;;;;;;;;;;;;;18.24;80.22;99141.19;6224511;23;19920;-92
2023/07/15 08:33:03;;;;;;;;;;;;;;;18.51;80.08;99149.56;6222407;23;20397;-90
2023/07/15 08:35:30;;;;;;;;;;;;;;;18.57;75.44;99144.50;6248384;23;19973;-92
2023/07/15 08:37:56;;;;;;;;;;;;;;;18.64;76.60;99142.66;6227136;23;19927;-91
2023/07/15 08:40:24;;;;;;;;;;;;;;;18.86;75.21;99152.13;6249448;23;19926;-93
2023/07/15 08:43:03;;;;;;;;;;;;;;;19.03;74.87;99148.00;6198254;23;19920;-92
2023/07/15 08:45:33;;;;;;;;;;;;;;;19.09;74.45;99140.97;6249159;23;19923;-91
2023/07/15 08:48:15;;;;;;;;;;;;;;;19.14;75.58;99140.66;6247016;23;19920;-90
2023/07/15 08:50:41;;;;;;;;;;;;;;;19.18;72.71;99147.03;6249400;23;19919;-91
2023/07/15 08:53:08;;;;;;;;;;;;;;;19.17;72.45;99142.69;6199929;23;20415;-93
2023/07/15 08:55:50;;;;;;;;;;;;;;;19.17;73.73;99139.09;6179109;23;19967;-91
2023/07/15 08:58:16;;;;;;;;;;;;;;;18.97;72.51;99138.41;6198795;23;19920;-91
2023/07/15 09:00:41;;;;;;;;;;;;;;;19.11;73.92;99141.41;6251077;23;19916;-92
2023/07/15 09:03:07;;;;;;;;;;;;;;;19.30;75.34;99151.53;6197987;23;19969;-92
2023/07/15 09:05:35;;;;;;;;;;;;;;;19.31;72.22;99150.38;6219867;23;19916;-94
2023/07/15 09:08:08;;;;;;;;;;;;;;;19.50;72.57;99154.97;6169980;23;19919;-89
2023/07/15 09:10:35;;;;;;;;;;;;;;;19.67;73.11;99159.19;6219890;23;19919;-89
2023/07/15 09:13:01;;;;;;;;;;;;;;;19.85;73.95;99160.19;6171569;23;20360;-91
2023/07/15 09:18:19;;;;;;;;;;;;;;;19.76;68.76;99161.66;6188067;23;19934;-91
2023/07/15 09:20:45;;;;;;;;;;;;;;;19.73;70.04;99160.44;6163494;23;19970;-90
2023/07/15 09:23:11;;;;;;;;;;;;;;;19.71;70.18;99162.81;6140403;23;19978;-89
2023/07/15 09:25:37;;;;;;;;;;;;;;;19.71;71.38;99165.59;6191019;23;19923;-90
2023/07/15 09:28:08;;;;;;;;;;;;;;;19.73;69.97;99163.22;6218623;23;20475;-90
2023/07/15 09:30:38;;;;;;;;;;;;;;;19.69;71.45;99162.38;6191107;23;19920;-94
2023/07/15 09:33:05;;;;;;;;;;;;;;;19.54;70.80;99160.59;6146160;23;19920;-94
2023/07/15 09:35:36;;;;;;;;;;;;;;;19.56;72.60;99161.00;6147991;23;19967;-92
2023/07/15 09:38:09;;;;;;;;;;;;;;;19.63;71.76;99161.06;6167550;23;20035;-92
2023/07/15 09:40:41;;;;;;;;;;;;;;;19.64;71.12;99165.50;6195926;23;19920;-91
2023/07/15 09:43:10;;;;;;;;;;;;;;;19.58;72.03;99166.97;6185539;23;19920;-91
2023/07/15 09:45:38;;;;;;;;;;;;;;;19.56;73.11;99161.00;6221380;23;20002;-90
2023/07/15 09:48:05;;;;;;;;;;;;;;;19.60;73.27;99162.66;6198296;23;19924;-90
2023/07/15 09:50:33;;;;;;;;;;;;;;;19.68;72.17;99166.34;6200831;23;20379;-92
2023/07/15 09:53:00;;;;;;;;;;;;;;;19.69;72.08;99168.72;6198567;23;19915;-90
2023/07/15 09:55:30;;;;;;;;;;;;;;;19.68;71.38;99169.09;6225486;23;19919;-90
2023/07/15 09:58:01;;;;;;;;;;;;;;;19.60;70.55;99164.59;6257957;23;19919;-88
2023/07/15 10:00:31;;;;;;;;;;;;;;;19.57;71.59;99168.94;6214328;23;20023;-92
2023/07/15 10:03:01;;;;;;;;;;;;;;;19.55;71.04;99164.94;6259399;23;19955;-91
2023/07/15 10:05:31;;;;;;;;;;;;;;;19.52;72.13;99160.94;6246994;23;19920;-88
2023/07/15 10:07:57;;;;;;;;;;;;;;;19.49;72.19;99159.72;6257235;22;19919;-89
2023/07/15 10:10:26;;;;;;;;;;;;;;;19.45;71.53;99158.09;6201321;23;19926;-89
2023/07/15 10:12:55;;;;;;;;;;;;;;;19.53;73.33;99154.22;6260288;23;19926;-91
2023/07/15 10:16:01;;;;;;;;;;;;;;;19.62;73.18;99168.59;6234888;23;19920;-90
2023/07/15 10:18:33;;;;;;;;;;;;;;;19.69;72.61;99163.16;6254893;22;19920;-92
2023/07/15 10:21:05;;;;;;;;;;;;;;;19.52;71.75;99163.72;6264685;23;19924;-94
2023/07/15 10:23:38;;;;;;;;;;;;;;;19.46;72.60;99174.34;6215380;23;19930;-93
2023/07/15 10:26:05;;;;;;;;;;;;;;;19.57;72.23;99168.13;6242546;22;19926;-91
2023/07/15 10:28:50;;;;;;;;;;;;;;;19.67;72.70;99164.75;6212296;23;19919;-92
2023/07/15 10:31:23;;;;;;;;;;;;;;;19.81;71.93;99167.69;6237176;22;19916;-90
2023/07/15 10:33:53;;;;;;;;;;;;;;;19.93;70.33;99170.19;6208873;23;19924;-90
2023/07/15 10:37:05;;;;;;;;;;;;;;;20.14;70.11;99171.59;6262959;23;20006;-91
2023/07/15 10:39:35;;;;;;;;;;;;;;;20.18;68.79;99167.69;6211180;23;19919;-93
2023/07/15 10:42:09;;;;;;;;;;;;;;;20.31;69.05;99161.84;6208447;23;20006;-92
2023/07/15 10:44:40;;;;;;;;;;;;;;;20.38;69.31;99157.16;6188229;23;19927;-92
2023/07/15 10:47:07;;;;;;;;;;;;;;;20.29;67.57;99166.97;6237294;23;19919;-92
2023/07/15 10:49:44;;;;;;;;;;;;;;;20.30;68.63;99166.63;6224019;23;19926;-93
2023/07/15 10:52:35;;;;;;;;;;;;;;;20.26;69.03;99163.00;6210379;22;19923;-96
2023/07/15 10:55:02;;;;;;;;;;;;;;;20.15;67.52;99162.09;6238802;23;19927;-88
2023/07/15 11:00:09;;;;;;;;;;;;;;;19.98;69.04;99162.72;6179566;23;19950;-93
2023/07/15 11:02:37;;;;;;;;;;;;;;;19.78;68.74;99168.44;6210298;22;19979;-95
2023/07/15 11:05:04;;;;;;;;;;;;;;;19.68;70.76;99160.78;6185291;23;19914;-94
2023/07/15 11:07:33;;;;;;;;;;;;;;;19.60;68.91;99161.81;6158632;23;19946;-95
2023/07/15 11:09:59;;;;;;;;;;;;;;;19.49;67.86;99165.25;6206076;23;19920;-91
2023/07/15 11:12:27;;;;;;;;;;;;;;;19.42;69.93;99159.63;6231828;23;19966;-95
2023/07/15 11:14:52;;;;;;;;;;;;;;;19.36;69.59;99163.91;6206807;23;19959;-95
2023/07/15 11:17:21;;;;;;;;;;;;;;;19.18;70.61;99158.13;6180095;23;20330;-94
2023/07/15 11:19:48;;;;;;;;;;;;;;;19.09;70.84;99162.34;6204633;23;19974;-96
2023/07/15 11:22:17;;;;;;;;;;;;;;;19.01;71.63;99151.16;6163189;23;19924;-95
2023/07/15 11:24:49;;;;;;;;;;;;;;;19.10;71.87;99159.19;6186309;23;19923;-91
2023/07/15 11:27:20;;;;;;;;;;;;;;;19.22;70.97;99158.19;6211103;23;19942;-94
2023/07/15 11:29:56;;;;;;;;;;;;;;;19.33;73.14;99161.88;6234362;23;19923;-95
2023/07/15 11:32:26;;;;;;;;;;;;;;;19.43;72.25;99157.66;6169639;23;19971;-95
2023/07/15 11:34:52;;;;;;;;;;;;;;;19.51;70.64;99164.13;6173724;23;19999;-92
2023/07/15 11:37:18;;;;;;;;;;;;;;;19.61;73.25;99167.00;6148952;23;19920;-94
2023/07/15 11:39:56;;;;;;;;;;;;;;;19.70;71.75;99161.19;6204585;23;19935;-95
2023/07/15 11:43:06;;;;;;;;;;;;;;;19.82;70.43;99160.16;6178891;23;20388;-95
2023/07/15 11:45:33;;;;;;;;;;;;;;;20.02;68.90;99161.56;6193687;23;19920;-93
2023/07/15 11:48:00;;;;;;;;;;;;;;;20.18;69.93;99145.47;6167872;23;19921;-95
2023/07/15 11:50:27;;;;;;;;;;;;;;;20.30;68.05;99143.63;6119218;23;19921;-94
2023/07/15 11:52:55;;;;;;;;;;;;;;;20.26;69.25;99146.34;6169790;23;19921;-92
2023/07/15 11:55:27;;;;;;;;;;;;;;;20.36;68.75;99139.28;6144961;23;20269;-89
2023/07/15 11:57:55;;;;;;;;;;;;;;;20.46;68.55;99144.13;5470684;23;16069097;-96
2023/07/15 12:00:25;;;;;;;;;;;;;;;20.69;67.59;99141.19;6099921;23;19913;-91
2023/07/15 12:03:21;;;;;;;;;;;;;;;20.88;67.71;99145.69;6124571;23;19984;-93
2023/07/15 12:06:06;;;;;;;;;;;;;;;20.86;66.31;99137.75;6090905;23;19921;-92
2023/07/15 12:08:42;;;;;;;;;;;;;;;20.79;66.48;99146.00;6066868;23;19953;-94
2023/07/15 12:11:19;;;;;;;;;;;;;;;20.69;65.03;99141.19;6067436;23;19942;-94
2023/07/15 12:14:09;;;;;;;;;;;;;;;20.83;66.06;99135.75;6043321;23;19950;-90
2023/07/15 12:17:16;;;;;;;;;;;;;;;20.91;66.18;99136.59;6066844;23;19955;-93
2023/07/15 12:19:48;;;;;;;;;;;;;;;21.04;64.46;99145.41;6043290;23;19905;-90
2023/07/15 12:22:19;;;;;;;;;;;;;;;21.03;62.53;99147.38;6066504;23;19941;-91
2023/07/15 12:25:26;;;;;;;;;;;;;;;21.01;64.03;99146.16;6019137;23;19942;-94
2023/07/15 12:28:33;;;;;;;;;;;;;;;21.16;62.67;99147.03;6061066;23;19922;-90
2023/07/15 12:31:05;;;;;;;;;;;;;;;21.43;63.31;99139.28;6058907;23;20257;-89
2023/07/15 12:34:27;;;;;;;;;;;;;;;21.65;62.78;99140.16;6037927;23;19898;-90
2023/07/15 12:40:29;;;;;;;;;;;;;;;21.67;59.87;99138.59;6061657;23;19902;-89
2023/07/15 12:43:23;;;;;;;;;;;;;;;21.77;60.96;99139.81;6114403;23;19905;-89
2023/07/15 12:46:08;;;;;;;;;;;;;;;21.75;61.90;99140.19;6090492;23;19905;-89
2023/07/15 12:48:38;;;;;;;;;;;;;;;21.56;60.67;99149.69;6115636;23;19960;-89
2023/07/15 12:51:19;;;;;;;;;;;;;;;21.29;60.94;99143.56;6112342;23;19940;-88
2023/07/15 12:53:52;;;;;;;;;;;;;;;21.46;61.64;99153.22;6094771;23;19913;-92
2023/07/15 12:56:21;;;;;;;;;;;;;;;21.54;62.07;99152.03;6157831;23;20411;-95
2023/07/15 12:58:51;;;;;;;;;;;;;;;21.65;61.91;99152.09;6205126;23;19974;-95
2023/07/15 13:01:19;;;;;;;;;;;;;;;21.61;61.28;99151.28;6206871;23;19951;-90
2023/07/15 13:03:47;;;;;;;;;;;;;;;21.69;60.57;99154.88;6202611;23;19968;-89
2023/07/15 13:06:16;;;;;;;;;;;;;;;21.89;62.49;99158.94;6206297;23;19965;-94
2023/07/15 13:08:42;;;;;;;;;;;;;;;21.84;61.03;99152.97;6226445;23;19928;-91
2023/07/15 13:11:10;;;;;;;;;;;;;;;21.74;60.00;99148.94;6154074;23;19920;-91
2023/07/15 13:13:37;;;;;;;;;;;;;;;21.37;60.91;99163.09;6201092;23;19927;-93
2023/07/15 13:16:18;;;;;;;;;;;;;;;20.93;61.84;99164.78;6225776;23;19920;-92
2023/07/15 13:18:48;;;;;;;;;;;;;;;20.87;61.03;99158.00;6160334;23;19926;-94
2023/07/15 13:21:14;;;;;;;;;;;;;;;20.90;62.23;99168.34;6207726;23;19916;-92
2023/07/15 13:23:45;;;;;;;;;;;;;;;21.06;62.37;99168.06;6230445;23;19944;-90
2023/07/15 13:26:11;;;;;;;;;;;;;;;21.08;59.74;99160.09;6228518;23;19999;-93
2023/07/15 13:28:37;;;;;;;;;;;;;;;21.02;58.88;99167.22;6206082;23;19904;-95
2023/07/15 13:31:03;;;;;;;;;;;;;;;21.03;59.13;99160.50;6205467;23;19916;-95
2023/07/15 13:33:29;;;;;;;;;;;;;;;20.96;59.55;99160.41;6176508;23;19911;-93
2023/07/15 13:35:55;;;;;;;;;;;;;;;20.97;59.11;99164.81;6202430;23;19931;-93